createdAt,value
2018-10-11T00:00:53.078Z,1005.92
2018-10-11T00:01:52.918Z,1005.94
2018-10-11T00:02:52.985Z,1005.91
2018-10-11T00:03:52.842Z,1005.86
2018-10-11T00:04:52.909Z,1005.88
2018-10-11T00:05:52.790Z,1005.82
2018-10-11T00:06:52.764Z,1005.82
2018-10-11T00:07:52.816Z,1005.81
2018-10-11T00:08:52.718Z,1005.81
2018-10-11T00:09:52.688Z,1005.79
2018-10-11T00:10:52.731Z,1005.82
2018-10-11T00:11:52.655Z,1005.84
2018-10-11T00:12:52.749Z,1005.83
2018-10-11T00:13:52.583Z,1005.82
2018-10-11T00:14:52.658Z,1005.83
2018-10-11T00:15:52.541Z,1005.80
2018-10-11T00:16:52.561Z,1005.80
2018-10-11T00:17:52.483Z,1005.78
2018-10-11T00:18:54.549Z,1005.78
2018-10-11T00:19:52.436Z,1005.81
2018-10-11T00:20:52.491Z,1005.85
2018-10-11T00:21:52.371Z,1005.83
2018-10-11T00:22:53.426Z,1005.80
2018-10-11T00:23:52.323Z,1005.88
2018-10-11T00:24:52.432Z,1005.81
2018-10-11T00:25:52.271Z,1005.79
2018-10-11T00:26:52.337Z,1005.81
2018-10-11T00:27:52.243Z,1005.82
2018-10-11T00:28:52.353Z,1005.84
2018-10-11T00:29:52.166Z,1005.83
2018-10-11T00:30:52.307Z,1005.86
2018-10-11T00:31:52.122Z,1005.82
2018-10-11T00:32:53.191Z,1005.80
2018-10-11T00:33:52.088Z,1005.80
2018-10-11T00:34:53.109Z,1005.78
2018-10-11T00:35:52.009Z,1005.82
2018-10-11T00:36:51.988Z,1005.77
2018-10-11T00:37:52.212Z,1005.74
2018-10-11T00:38:51.935Z,1005.75
2018-10-11T00:39:52.009Z,1005.71
2018-10-11T00:40:51.873Z,1005.72
2018-10-11T00:41:51.850Z,1005.68
2018-10-11T00:42:51.830Z,1005.73
2018-10-11T00:43:52.959Z,1005.71
2018-10-11T00:44:51.775Z,1005.69
2018-10-11T00:45:51.854Z,1005.76
2018-10-11T00:46:51.717Z,1005.76
2018-10-11T00:47:51.703Z,1005.77
2018-10-11T00:48:51.671Z,1005.72
2018-10-11T00:49:51.776Z,1005.75
2018-10-11T00:50:51.630Z,1005.77
2018-10-11T00:51:51.682Z,1005.78
2018-10-11T00:52:51.570Z,1005.78
2018-10-11T00:53:51.537Z,1005.77
2018-10-11T00:54:51.592Z,1005.77
2018-10-11T00:55:51.489Z,1005.69
2018-10-11T00:56:51.458Z,1005.73
2018-10-11T00:57:51.512Z,1005.74
2018-10-11T00:58:51.409Z,1005.75
2018-10-11T00:59:51.384Z,1005.72
2018-10-11T01:00:51.355Z,1005.75
2018-10-11T01:01:52.448Z,1005.72
2018-10-11T01:02:51.307Z,1005.66
2018-10-11T01:03:51.337Z,1005.64
2018-10-11T01:04:51.248Z,1005.66
2018-10-11T01:05:52.383Z,1005.65
2018-10-11T01:06:51.183Z,1005.63
2018-10-11T01:07:51.151Z,1005.64
2018-10-11T01:08:51.260Z,1005.61
2018-10-11T01:09:51.117Z,1005.57
2018-10-11T01:10:51.079Z,1005.61
2018-10-11T01:11:51.181Z,1005.64
2018-10-11T01:12:51.018Z,1005.59
2018-10-11T01:13:51.080Z,1005.62
2018-10-11T01:14:50.974Z,1005.57
2018-10-11T01:15:51.100Z,1005.58
2018-10-11T01:16:50.916Z,1005.59
2018-10-11T01:17:50.909Z,1005.56
2018-10-11T01:18:51.005Z,1005.55
2018-10-11T01:19:50.835Z,1005.54
2018-10-11T01:20:50.817Z,1005.51
2018-10-11T01:21:50.789Z,1005.49
2018-10-11T01:22:50.763Z,1005.50
2018-10-11T01:23:50.829Z,1005.52
2018-10-11T01:24:50.707Z,1005.54
2018-10-11T01:25:50.680Z,1005.52
2018-10-11T01:26:50.657Z,1005.50
2018-10-11T01:27:50.623Z,1005.43
2018-10-11T01:28:50.599Z,1005.50
2018-10-11T01:29:50.650Z,1005.49
2018-10-11T01:30:50.549Z,1005.52
2018-10-11T01:31:50.520Z,1005.51
2018-10-11T01:32:50.494Z,1005.44
2018-10-11T01:33:50.463Z,1005.42
2018-10-11T01:34:50.446Z,1005.44
2018-10-11T01:35:50.418Z,1005.47
2018-10-11T01:36:50.380Z,1005.50
2018-10-11T01:37:50.357Z,1005.48
2018-10-11T01:38:50.509Z,1005.48
2018-10-11T01:39:50.442Z,1005.51
2018-10-11T01:40:50.284Z,1005.45
2018-10-11T01:41:50.278Z,1005.45
2018-10-11T01:42:50.349Z,1005.48
2018-10-11T01:43:50.206Z,1005.43
2018-10-11T01:44:50.266Z,1005.37
2018-10-11T01:45:50.147Z,1005.36
2018-10-11T01:46:50.132Z,1005.35
2018-10-11T01:47:50.103Z,1005.34
2018-10-11T01:48:50.070Z,1005.39
2018-10-11T01:49:50.041Z,1005.34
2018-10-11T01:50:50.029Z,1005.32
2018-10-11T01:51:49.991Z,1005.31
2018-10-11T01:52:49.959Z,1005.32
2018-10-11T01:53:49.943Z,1005.33
2018-10-11T01:54:49.913Z,1005.36
2018-10-11T01:55:49.890Z,1005.35
2018-10-11T01:56:49.903Z,1005.34
2018-10-11T01:57:49.836Z,1005.32
2018-10-11T01:58:49.807Z,1005.25
2018-10-11T01:59:49.789Z,1005.25
2018-10-11T02:00:49.858Z,1005.27
2018-10-11T02:01:49.728Z,1005.28
2018-10-11T02:02:49.709Z,1005.27
2018-10-11T02:03:49.781Z,1005.25
2018-10-11T02:04:49.648Z,1005.27
2018-10-11T02:05:49.625Z,1005.20
2018-10-11T02:06:49.601Z,1005.20
2018-10-11T02:07:49.569Z,1005.19
2018-10-11T02:08:49.551Z,1005.16
2018-10-11T02:09:49.515Z,1005.10
2018-10-11T02:10:49.491Z,1005.14
2018-10-11T02:11:49.471Z,1005.13
2018-10-11T02:12:49.438Z,1005.13
2018-10-11T02:13:49.407Z,1005.12
2018-10-11T02:14:49.389Z,1005.10
2018-10-11T02:15:49.356Z,1005.11
2018-10-11T02:16:49.333Z,1005.11
2018-10-11T02:17:49.306Z,1005.09
2018-10-11T02:18:49.281Z,1005.05
2018-10-11T02:19:49.254Z,1005.12
2018-10-11T02:20:49.224Z,1005.07
2018-10-11T02:21:49.196Z,1005.05
2018-10-11T02:22:49.304Z,1005.06
2018-10-11T02:23:49.149Z,1005.06
2018-10-11T02:24:49.209Z,1005.04
2018-10-11T02:25:49.087Z,1005.00
2018-10-11T02:26:49.224Z,1005.02
2018-10-11T02:27:49.060Z,1005.01
2018-10-11T02:28:49.137Z,1005.06
2018-10-11T02:29:48.986Z,1005.06
2018-10-11T02:30:49.042Z,1005.06
2018-10-11T02:31:48.949Z,1005.08
2018-10-11T02:32:49.059Z,1005.05
2018-10-11T02:33:48.878Z,1005.01
2018-10-11T02:34:48.971Z,1005.05
2018-10-11T02:35:48.827Z,1005.02
2018-10-11T02:36:48.984Z,1005.00
2018-10-11T02:37:48.774Z,1005.00
2018-10-11T02:38:48.893Z,1005.02
2018-10-11T02:39:48.748Z,1004.97
2018-10-11T02:40:48.806Z,1004.97
2018-10-11T02:41:48.678Z,1004.98
2018-10-11T02:42:48.819Z,1004.90
2018-10-11T02:43:48.619Z,1004.93
2018-10-11T02:44:48.734Z,1004.97
2018-10-11T02:45:48.575Z,1004.98
2018-10-11T02:46:48.752Z,1004.97
2018-10-11T02:47:48.508Z,1004.97
2018-10-11T02:48:48.652Z,1004.99
2018-10-11T02:49:48.455Z,1004.91
2018-10-11T02:50:48.574Z,1004.89
2018-10-11T02:51:48.406Z,1004.92
2018-10-11T02:52:48.482Z,1004.88
2018-10-11T02:53:48.350Z,1004.88
2018-10-11T02:54:48.497Z,1004.89
2018-10-11T02:55:48.297Z,1004.86
2018-10-11T02:56:48.403Z,1004.89
2018-10-11T02:57:48.251Z,1004.88
2018-10-11T02:58:48.311Z,1004.92
2018-10-11T02:59:48.184Z,1004.91
2018-10-11T03:00:48.331Z,1004.93
2018-10-11T03:01:48.139Z,1004.88
2018-10-11T03:02:48.276Z,1004.87
2018-10-11T03:03:48.081Z,1004.89
2018-10-11T03:04:48.253Z,1004.84
2018-10-11T03:05:48.038Z,1004.83
2018-10-11T03:06:48.163Z,1004.82
2018-10-11T03:07:47.982Z,1004.85
2018-10-11T03:08:48.081Z,1004.84
2018-10-11T03:09:47.925Z,1004.91
2018-10-11T03:10:48.092Z,1004.91
2018-10-11T03:11:47.881Z,1004.97
2018-10-11T03:12:48.000Z,1004.97
2018-10-11T03:13:47.840Z,1005.01
2018-10-11T03:14:47.922Z,1005.03
2018-10-11T03:15:47.772Z,1004.96
2018-10-11T03:16:47.928Z,1004.99
2018-10-11T03:17:47.719Z,1004.96
2018-10-11T03:18:47.837Z,1005.01
2018-10-11T03:19:47.668Z,1004.96
2018-10-11T03:20:47.747Z,1004.93
2018-10-11T03:21:47.612Z,1004.86
2018-10-11T03:22:47.766Z,1004.85
2018-10-11T03:23:47.565Z,1004.86
2018-10-11T03:24:47.674Z,1004.86
2018-10-11T03:25:47.504Z,1004.89
2018-10-11T03:26:47.602Z,1004.92
2018-10-11T03:27:47.450Z,1004.92
2018-10-11T03:28:47.607Z,1004.85
2018-10-11T03:29:47.403Z,1004.84
2018-10-11T03:30:47.497Z,1004.82
2018-10-11T03:31:47.349Z,1004.85
2018-10-11T03:32:47.522Z,1004.84
2018-10-11T03:33:47.294Z,1004.88
2018-10-11T03:34:48.432Z,1004.93
2018-10-11T03:35:47.243Z,1004.93
2018-10-11T03:36:53.271Z,1004.92
2018-10-11T03:37:47.197Z,1004.94
2018-10-11T03:38:47.324Z,1004.92
2018-10-11T03:39:47.145Z,1004.89
2018-10-11T03:40:47.209Z,1004.91
2018-10-11T03:41:47.082Z,1004.87
2018-10-11T03:42:47.129Z,1004.86
2018-10-11T03:43:47.030Z,1004.87
2018-10-11T03:44:47.138Z,1004.83
2018-10-11T03:45:46.992Z,1004.87
2018-10-11T03:46:47.058Z,1004.78
2018-10-11T03:47:46.926Z,1004.78
2018-10-11T03:48:46.970Z,1004.76
2018-10-11T03:49:46.873Z,1004.79
2018-10-11T03:50:46.973Z,1004.79
2018-10-11T03:51:46.831Z,1004.79
2018-10-11T03:52:46.888Z,1004.81
2018-10-11T03:53:46.768Z,1004.81
2018-10-11T03:54:46.801Z,1004.85
2018-10-11T03:55:46.715Z,1004.94
2018-10-11T03:56:46.812Z,1004.94
2018-10-11T03:57:46.668Z,1004.96
2018-10-11T03:58:46.724Z,1004.93
2018-10-11T03:59:46.652Z,1004.96
2018-10-11T04:00:46.735Z,1004.93
2018-10-11T04:01:46.563Z,1004.91
2018-10-11T04:02:46.646Z,1004.94
2018-10-11T04:03:46.506Z,1004.94
2018-10-11T04:04:46.561Z,1004.90
2018-10-11T04:05:46.457Z,1004.89
2018-10-11T04:06:46.566Z,1004.89
2018-10-11T04:07:46.402Z,1004.88
2018-10-11T04:08:46.477Z,1004.82
2018-10-11T04:09:46.355Z,1004.80
2018-10-11T04:10:46.379Z,1004.78
2018-10-11T04:11:46.323Z,1004.81
2018-10-11T04:12:46.400Z,1004.82
2018-10-11T04:13:46.253Z,1004.84
2018-10-11T04:14:46.304Z,1004.87
2018-10-11T04:15:46.190Z,1004.92
2018-10-11T04:16:46.219Z,1004.93
2018-10-11T04:17:46.140Z,1004.94
2018-10-11T04:18:46.237Z,1004.93
2018-10-11T04:19:46.081Z,1004.90
2018-10-11T04:20:46.143Z,1004.93
2018-10-11T04:21:46.042Z,1004.87
2018-10-11T04:22:47.074Z,1004.88
2018-10-11T04:23:45.977Z,1004.85
2018-10-11T04:24:46.078Z,1004.88
2018-10-11T04:25:45.929Z,1004.87
2018-10-11T04:26:45.978Z,1004.87
2018-10-11T04:27:45.883Z,1004.87
2018-10-11T04:28:45.990Z,1004.89
2018-10-11T04:29:45.822Z,1004.84
2018-10-11T04:30:45.919Z,1004.84
2018-10-11T04:31:45.774Z,1004.78
2018-10-11T04:32:45.812Z,1004.79
2018-10-11T04:33:45.727Z,1004.79
2018-10-11T04:34:45.828Z,1004.78
2018-10-11T04:35:45.669Z,1004.77
2018-10-11T04:36:45.739Z,1004.79
2018-10-11T04:37:45.625Z,1004.76
2018-10-11T04:38:45.648Z,1004.77
2018-10-11T04:39:45.564Z,1004.79
2018-10-11T04:40:45.667Z,1004.82
2018-10-11T04:41:45.513Z,1004.82
2018-10-11T04:42:45.636Z,1004.87
2018-10-11T04:43:45.464Z,1004.84
2018-10-11T04:44:45.589Z,1004.86
2018-10-11T04:45:45.406Z,1004.84
2018-10-11T04:46:45.506Z,1004.90
2018-10-11T04:47:45.357Z,1004.87
2018-10-11T04:48:45.438Z,1004.88
2018-10-11T04:49:45.305Z,1004.86
2018-10-11T04:50:45.425Z,1004.86
2018-10-11T04:51:45.253Z,1004.87
2018-10-11T04:52:45.349Z,1004.84
2018-10-11T04:53:45.201Z,1004.84
2018-10-11T04:54:45.250Z,1004.82
2018-10-11T04:55:45.158Z,1004.84
2018-10-11T04:56:45.264Z,1004.85
2018-10-11T04:57:45.091Z,1004.89
2018-10-11T04:58:45.170Z,1004.88
2018-10-11T04:59:45.046Z,1004.87
2018-10-11T05:00:45.091Z,1004.89
2018-10-11T05:01:44.988Z,1004.90
2018-10-11T05:02:45.098Z,1004.91
2018-10-11T05:03:44.937Z,1004.96
2018-10-11T05:04:45.013Z,1004.90
2018-10-11T05:05:44.887Z,1004.94
2018-10-11T05:06:45.043Z,1004.90
2018-10-11T05:07:44.842Z,1004.91
2018-10-11T05:08:44.939Z,1004.91
2018-10-11T05:09:44.811Z,1005.00
2018-10-11T05:10:44.846Z,1005.00
2018-10-11T05:11:44.747Z,1005.03
2018-10-11T05:12:44.861Z,1005.05
2018-10-11T05:13:44.683Z,1005.06
2018-10-11T05:14:44.770Z,1005.04
2018-10-11T05:15:44.659Z,1005.06
2018-10-11T05:16:44.697Z,1005.07
2018-10-11T05:17:44.578Z,1005.11
2018-10-11T05:18:44.698Z,1005.14
2018-10-11T05:19:44.521Z,1005.09
2018-10-11T05:20:44.615Z,1005.12
2018-10-11T05:21:44.477Z,1005.12
2018-10-11T05:22:44.511Z,1005.10
2018-10-11T05:23:44.427Z,1005.13
2018-10-11T05:24:44.532Z,1005.09
2018-10-11T05:25:44.372Z,1005.10
2018-10-11T05:26:44.442Z,1005.06
2018-10-11T05:27:44.325Z,1005.05
2018-10-11T05:28:44.457Z,1005.05
2018-10-11T05:29:44.288Z,1005.04
2018-10-11T05:30:44.333Z,1005.06
2018-10-11T05:31:44.214Z,1005.02
2018-10-11T05:32:44.239Z,1005.04
2018-10-11T05:33:44.218Z,1005.06
2018-10-11T05:34:44.258Z,1005.04
2018-10-11T05:35:44.103Z,1005.08
2018-10-11T05:36:44.169Z,1005.09
2018-10-11T05:37:44.161Z,1005.09
2018-10-11T05:38:44.152Z,1005.07
2018-10-11T05:39:44.033Z,1005.10
2018-10-11T05:40:44.192Z,1005.11
2018-10-11T05:41:44.017Z,1005.03
2018-10-11T05:42:45.027Z,1005.03
2018-10-11T05:43:43.971Z,1005.03
2018-10-11T05:44:43.920Z,1005.01
2018-10-11T05:45:43.847Z,1005.00
2018-10-11T05:46:43.938Z,1005.01
2018-10-11T05:47:43.804Z,1004.99
2018-10-11T05:48:43.853Z,1005.02
2018-10-11T05:49:43.747Z,1005.06
2018-10-11T05:50:44.776Z,1005.10
2018-10-11T05:51:43.681Z,1005.07
2018-10-11T05:52:43.817Z,1005.08
2018-10-11T05:53:43.640Z,1005.08
2018-10-11T05:54:43.732Z,1005.08
2018-10-11T05:55:43.586Z,1005.09
2018-10-11T05:56:43.730Z,1005.02
2018-10-11T05:57:43.522Z,1005.06
2018-10-11T05:58:43.604Z,1005.04
2018-10-11T05:59:43.480Z,1005.08
2018-10-11T06:00:43.510Z,1005.09
2018-10-11T06:01:43.418Z,1005.05
2018-10-11T06:02:43.498Z,1005.04
2018-10-11T06:03:43.363Z,1005.05
2018-10-11T06:04:43.403Z,1005.07
2018-10-11T06:05:43.315Z,1005.09
2018-10-11T06:06:43.393Z,1005.11
2018-10-11T06:07:43.304Z,1005.11
2018-10-11T06:08:43.329Z,1005.15
2018-10-11T06:09:43.214Z,1005.20
2018-10-11T06:10:43.231Z,1005.21
2018-10-11T06:11:43.158Z,1005.23
2018-10-11T06:12:43.149Z,1005.24
2018-10-11T06:13:43.103Z,1005.18
2018-10-11T06:14:43.160Z,1005.21
2018-10-11T06:15:43.044Z,1005.19
2018-10-11T06:16:43.117Z,1005.16
2018-10-11T06:17:43.036Z,1005.20
2018-10-11T06:18:43.099Z,1005.19
2018-10-11T06:19:42.949Z,1005.22
2018-10-11T06:20:42.991Z,1005.22
2018-10-11T06:21:42.892Z,1005.22
2018-10-11T06:22:43.223Z,1005.22
2018-10-11T06:23:42.843Z,1005.25
2018-10-11T06:24:42.837Z,1005.26
2018-10-11T06:25:42.786Z,1005.28
2018-10-11T06:26:42.765Z,1005.25
2018-10-11T06:27:42.736Z,1005.31
2018-10-11T06:28:42.702Z,1005.35
2018-10-11T06:29:42.674Z,1005.34
2018-10-11T06:30:42.664Z,1005.37
2018-10-11T06:31:42.635Z,1005.31
2018-10-11T06:32:42.606Z,1005.35
2018-10-11T06:33:42.579Z,1005.33
2018-10-11T06:34:42.540Z,1005.31
2018-10-11T06:35:42.568Z,1005.31
2018-10-11T06:36:42.621Z,1005.26
2018-10-11T06:37:42.465Z,1005.31
2018-10-11T06:38:42.433Z,1005.29
2018-10-11T06:39:42.430Z,1005.26
2018-10-11T06:40:42.387Z,1005.23
2018-10-11T06:41:42.486Z,1005.27
2018-10-11T06:42:42.357Z,1005.26
2018-10-11T06:43:42.311Z,1005.30
2018-10-11T06:44:42.293Z,1005.31
2018-10-11T06:45:42.253Z,1005.29
2018-10-11T06:46:42.229Z,1005.31
2018-10-11T06:47:42.204Z,1005.30
2018-10-11T06:48:42.173Z,1005.35
2018-10-11T06:49:42.189Z,1005.34
2018-10-11T06:50:42.120Z,1005.41
2018-10-11T06:51:42.091Z,1005.40
2018-10-11T06:52:42.072Z,1005.43
2018-10-11T06:53:42.042Z,1005.44
2018-10-11T06:54:42.010Z,1005.45
2018-10-11T06:55:41.987Z,1005.44
2018-10-11T06:56:41.960Z,1005.41
2018-10-11T06:57:42.022Z,1005.42
2018-10-11T06:58:41.905Z,1005.44
2018-10-11T06:59:41.887Z,1005.44
2018-10-11T07:00:41.857Z,1005.46
2018-10-11T07:01:41.851Z,1005.47
2018-10-11T07:02:41.790Z,1005.48
2018-10-11T07:03:41.767Z,1005.49
2018-10-11T07:04:41.736Z,1005.51
2018-10-11T07:05:41.774Z,1005.50
2018-10-11T07:06:41.682Z,1005.53
2018-10-11T07:07:41.658Z,1005.55
2018-10-11T07:08:41.632Z,1005.56
2018-10-11T07:09:41.622Z,1005.56
2018-10-11T07:10:41.739Z,1005.60
2018-10-11T07:11:41.558Z,1005.59
2018-10-11T07:12:41.634Z,1005.59
2018-10-11T07:13:41.504Z,1005.59
2018-10-11T07:14:41.470Z,1005.64
2018-10-11T07:15:41.558Z,1005.63
2018-10-11T07:16:41.421Z,1005.63
2018-10-11T07:17:41.409Z,1005.67
2018-10-11T07:18:41.365Z,1005.69
2018-10-11T07:19:41.339Z,1005.71
2018-10-11T07:20:41.376Z,1005.73
2018-10-11T07:21:41.376Z,1005.76
2018-10-11T07:22:41.262Z,1005.79
2018-10-11T07:23:41.241Z,1005.76
2018-10-11T07:24:41.212Z,1005.80
2018-10-11T07:25:41.363Z,1005.80
2018-10-11T07:26:41.158Z,1005.82
2018-10-11T07:27:41.174Z,1005.81
2018-10-11T07:28:41.127Z,1005.82
2018-10-11T07:29:41.079Z,1005.81
2018-10-11T07:30:41.107Z,1005.83
2018-10-11T07:31:41.095Z,1005.81
2018-10-11T07:32:40.998Z,1005.84
2018-10-11T07:33:41.007Z,1005.85
2018-10-11T07:34:41.059Z,1005.84
2018-10-11T07:35:40.941Z,1005.93
2018-10-11T07:36:40.883Z,1005.96
2018-10-11T07:37:40.864Z,1005.95
2018-10-11T07:38:40.833Z,1005.98
2018-10-11T07:39:40.807Z,1005.99
2018-10-11T07:40:40.968Z,1005.96
2018-10-11T07:41:40.849Z,1005.93
2018-10-11T07:42:40.823Z,1005.93
2018-10-11T07:43:40.697Z,1005.92
2018-10-11T07:44:40.680Z,1005.95
2018-10-11T07:45:40.676Z,1005.95
2018-10-11T07:46:40.623Z,1005.95
2018-10-11T07:47:40.684Z,1005.95
2018-10-11T07:48:40.558Z,1005.96
2018-10-11T07:49:40.695Z,1005.93
2018-10-11T07:50:40.520Z,1005.94
2018-10-11T07:51:40.505Z,1005.95
2018-10-11T07:52:40.502Z,1005.93
2018-10-11T07:53:40.440Z,1005.96
2018-10-11T07:54:40.413Z,1005.97
2018-10-11T07:55:40.440Z,1005.99
2018-10-11T07:56:40.348Z,1006.03
2018-10-11T07:57:40.351Z,1005.98
2018-10-11T07:58:40.296Z,1005.99
2018-10-11T07:59:40.351Z,1005.97
2018-10-11T08:00:40.238Z,1005.98
2018-10-11T08:01:40.291Z,1005.99
2018-10-11T08:02:40.190Z,1006.00
2018-10-11T08:03:40.179Z,1006.00
2018-10-11T08:04:40.153Z,1005.99
2018-10-11T08:05:40.187Z,1006.00
2018-10-11T08:06:40.079Z,1006.03
2018-10-11T08:07:40.169Z,1006.02
2018-10-11T08:08:40.043Z,1006.01
2018-10-11T08:09:40.005Z,1006.08
2018-10-11T08:10:40.143Z,1006.05
2018-10-11T08:11:40.144Z,1006.04
2018-10-11T08:12:39.921Z,1006.03
2018-10-11T08:13:40.003Z,1006.05
2018-10-11T08:14:39.884Z,1006.05
2018-10-11T08:15:39.944Z,1006.07
2018-10-11T08:16:39.914Z,1006.09
2018-10-11T08:17:40.163Z,1006.16
2018-10-11T08:18:39.842Z,1006.18
2018-10-11T08:19:39.839Z,1006.20
2018-10-11T08:20:39.772Z,1006.18
2018-10-11T08:21:39.813Z,1006.20
2018-10-11T08:22:39.650Z,1006.25
2018-10-11T08:23:39.691Z,1006.21
2018-10-11T08:24:39.632Z,1006.26
2018-10-11T08:25:39.842Z,1006.27
2018-10-11T08:26:39.601Z,1006.29
2018-10-11T08:27:39.618Z,1006.29
2018-10-11T08:28:39.548Z,1006.32
2018-10-11T08:29:39.528Z,1006.32
2018-10-11T08:30:39.451Z,1006.30
2018-10-11T08:31:39.448Z,1006.32
2018-10-11T08:32:39.710Z,1006.31
2018-10-11T08:33:39.452Z,1006.25
2018-10-11T08:34:39.345Z,1006.26
2018-10-11T08:35:39.319Z,1006.23
2018-10-11T08:36:39.274Z,1006.24
2018-10-11T08:37:39.334Z,1006.26
2018-10-11T08:38:39.287Z,1006.30
2018-10-11T08:39:39.284Z,1006.33
2018-10-11T08:40:39.161Z,1006.34
2018-10-11T08:41:39.210Z,1006.31
2018-10-11T08:42:39.115Z,1006.30
2018-10-11T08:43:39.236Z,1006.32
2018-10-11T08:44:39.053Z,1006.28
2018-10-11T08:45:39.116Z,1006.30
2018-10-11T08:46:39.008Z,1006.33
2018-10-11T08:47:39.028Z,1006.30
2018-10-11T08:48:38.955Z,1006.32
2018-10-11T08:49:39.038Z,1006.30
2018-10-11T08:50:38.926Z,1006.25
2018-10-11T08:51:38.955Z,1006.21
2018-10-11T08:52:38.843Z,1006.18
2018-10-11T08:53:38.904Z,1006.18
2018-10-11T08:54:38.787Z,1006.17
2018-10-11T08:55:38.987Z,1006.18
2018-10-11T08:56:38.741Z,1006.19
2018-10-11T08:57:38.800Z,1006.21
2018-10-11T08:58:38.695Z,1006.23
2018-10-11T08:59:38.738Z,1006.23
2018-10-11T09:00:38.644Z,1006.24
2018-10-11T09:01:38.700Z,1006.26
2018-10-11T09:02:38.586Z,1006.24
2018-10-11T09:03:39.776Z,1006.23
2018-10-11T09:04:38.528Z,1006.18
2018-10-11T09:05:38.525Z,1006.18
2018-10-11T09:06:38.472Z,1006.16
2018-10-11T09:07:38.545Z,1006.17
2018-10-11T09:08:38.423Z,1006.17
2018-10-11T09:09:38.524Z,1006.21
2018-10-11T09:10:38.695Z,1006.21
2018-10-11T09:11:40.405Z,1006.26
2018-10-11T09:12:38.314Z,1006.29
2018-10-11T09:13:38.385Z,1006.29
2018-10-11T09:14:38.260Z,1006.26
2018-10-11T09:15:38.286Z,1006.25
2018-10-11T09:16:38.228Z,1006.28
2018-10-11T09:17:38.307Z,1006.25
2018-10-11T09:18:38.151Z,1006.28
2018-10-11T09:19:38.203Z,1006.22
2018-10-11T09:20:38.107Z,1006.26
2018-10-11T09:21:38.121Z,1006.22
2018-10-11T09:22:38.063Z,1006.19
2018-10-11T09:23:38.125Z,1006.19
2018-10-11T09:24:38.008Z,1006.20
2018-10-11T09:25:38.050Z,1006.19
2018-10-11T09:26:37.953Z,1006.18
2018-10-11T09:27:37.951Z,1006.20
2018-10-11T09:28:37.895Z,1006.19
2018-10-11T09:29:37.956Z,1006.22
2018-10-11T09:30:37.846Z,1006.23
2018-10-11T09:31:37.875Z,1006.24
2018-10-11T09:32:37.786Z,1006.26
2018-10-11T09:33:37.794Z,1006.30
2018-10-11T09:34:37.744Z,1006.26
2018-10-11T09:35:37.797Z,1006.24
2018-10-11T09:36:37.807Z,1006.27
2018-10-11T09:37:37.710Z,1006.28
2018-10-11T09:38:37.629Z,1006.26
2018-10-11T09:39:37.614Z,1006.26
2018-10-11T09:40:37.593Z,1006.30
2018-10-11T09:41:37.630Z,1006.34
2018-10-11T09:42:37.533Z,1006.31
2018-10-11T09:43:37.541Z,1006.30
2018-10-11T09:44:37.471Z,1006.27
2018-10-11T09:45:37.554Z,1006.31
2018-10-11T09:46:37.413Z,1006.30
2018-10-11T09:47:37.467Z,1006.34
2018-10-11T09:48:37.372Z,1006.40
2018-10-11T09:49:37.375Z,1006.39
2018-10-11T09:50:37.317Z,1006.36
2018-10-11T09:51:38.312Z,1006.35
2018-10-11T09:52:37.254Z,1006.35
2018-10-11T09:53:37.296Z,1006.35
2018-10-11T09:54:37.228Z,1006.33
2018-10-11T09:55:37.211Z,1006.29
2018-10-11T09:56:37.159Z,1006.35
2018-10-11T09:57:37.228Z,1006.34
2018-10-11T09:58:37.102Z,1006.33
2018-10-11T09:59:37.141Z,1006.33
2018-10-11T10:00:37.060Z,1006.35
2018-10-11T10:01:37.040Z,1006.34
2018-10-11T10:02:36.995Z,1006.36
2018-10-11T10:03:37.071Z,1006.36
2018-10-11T10:04:36.953Z,1006.38
2018-10-11T10:05:39.024Z,1006.33
2018-10-11T10:06:36.892Z,1006.36
2018-10-11T10:07:37.906Z,1006.33
2018-10-11T10:08:36.854Z,1006.32
2018-10-11T10:09:36.895Z,1006.32
2018-10-11T10:10:36.799Z,1006.30
2018-10-11T10:11:36.817Z,1006.32
2018-10-11T10:12:36.743Z,1006.33
2018-10-11T10:13:36.813Z,1006.26
2018-10-11T10:14:36.689Z,1006.32
2018-10-11T10:15:36.796Z,1006.33
2018-10-11T10:16:36.626Z,1006.33
2018-10-11T10:17:36.634Z,1006.32
2018-10-11T10:18:36.585Z,1006.28
2018-10-11T10:19:36.652Z,1006.30
2018-10-11T10:20:36.530Z,1006.29
2018-10-11T10:21:36.592Z,1006.30
2018-10-11T10:22:36.474Z,1006.34
2018-10-11T10:23:36.449Z,1006.30
2018-10-11T10:24:36.727Z,1006.33
2018-10-11T10:25:36.717Z,1006.32
2018-10-11T10:26:36.413Z,1006.31
2018-10-11T10:27:36.395Z,1006.26
2018-10-11T10:28:36.317Z,1006.30
2018-10-11T10:29:36.303Z,1006.29
2018-10-11T10:30:36.264Z,1006.30
2018-10-11T10:31:36.313Z,1006.27
2018-10-11T10:32:36.210Z,1006.32
2018-10-11T10:33:36.227Z,1006.25
2018-10-11T10:34:36.167Z,1006.27
2018-10-11T10:35:36.239Z,1006.29
2018-10-11T10:36:36.102Z,1006.23
2018-10-11T10:37:36.159Z,1006.23
2018-10-11T10:38:36.054Z,1006.24
2018-10-11T10:39:36.072Z,1006.23
2018-10-11T10:40:36.007Z,1006.25
2018-10-11T10:41:36.074Z,1006.23
2018-10-11T10:42:35.949Z,1006.16
2018-10-11T10:43:35.985Z,1006.19
2018-10-11T10:44:35.893Z,1006.20
2018-10-11T10:45:35.890Z,1006.18
2018-10-11T10:46:35.853Z,1006.16
2018-10-11T10:47:35.910Z,1006.20
2018-10-11T10:48:35.791Z,1006.21
2018-10-11T10:49:35.834Z,1006.16
2018-10-11T10:50:35.759Z,1006.13
2018-10-11T10:51:35.842Z,1006.13
2018-10-11T10:52:35.711Z,1006.08
2018-10-11T10:53:35.752Z,1006.07
2018-10-11T10:54:35.673Z,1006.03
2018-10-11T10:55:35.653Z,1006.04
2018-10-11T10:56:35.607Z,1006.03
2018-10-11T10:57:35.670Z,1006.00
2018-10-11T10:58:35.534Z,1006.04
2018-10-11T10:59:35.579Z,1006.00
2018-10-11T11:00:35.483Z,1005.95
2018-10-11T11:01:35.490Z,1005.98
2018-10-11T11:02:35.433Z,1005.94
2018-10-11T11:03:35.508Z,1005.96
2018-10-11T11:04:35.382Z,1005.97
2018-10-11T11:05:35.418Z,1005.96
2018-10-11T11:06:35.327Z,1005.95
2018-10-11T11:07:35.420Z,1005.97
2018-10-11T11:08:35.289Z,1005.91
2018-10-11T11:09:35.351Z,1005.91
2018-10-11T11:10:35.238Z,1005.93
2018-10-11T11:11:35.244Z,1005.91
2018-10-11T11:12:35.190Z,1005.90
2018-10-11T11:13:35.260Z,1005.90
2018-10-11T11:14:35.135Z,1005.87
2018-10-11T11:15:35.169Z,1005.86
2018-10-11T11:16:35.081Z,1005.86
2018-10-11T11:17:35.093Z,1005.88
2018-10-11T11:18:35.037Z,1005.90
2018-10-11T11:19:35.091Z,1005.88
2018-10-11T11:20:34.994Z,1005.88
2018-10-11T11:21:35.010Z,1005.89
2018-10-11T11:22:34.920Z,1005.83
2018-10-11T11:23:34.913Z,1005.83
2018-10-11T11:24:34.872Z,1005.84
2018-10-11T11:25:34.929Z,1005.82
2018-10-11T11:26:34.841Z,1005.84
2018-10-11T11:27:34.832Z,1005.83
2018-10-11T11:28:34.783Z,1005.86
2018-10-11T11:29:34.748Z,1005.84
2018-10-11T11:30:34.799Z,1005.85
2018-10-11T11:31:34.697Z,1005.82
2018-10-11T11:32:34.771Z,1005.81
2018-10-11T11:33:34.656Z,1005.82
2018-10-11T11:34:34.677Z,1005.78
2018-10-11T11:35:34.595Z,1005.78
2018-10-11T11:36:34.592Z,1005.84
2018-10-11T11:37:34.556Z,1005.81
2018-10-11T11:38:34.517Z,1005.77
2018-10-11T11:39:34.494Z,1005.76
2018-10-11T11:40:34.480Z,1005.74
2018-10-11T11:41:34.446Z,1005.73
2018-10-11T11:42:34.413Z,1005.70
2018-10-11T11:43:34.394Z,1005.73
2018-10-11T11:44:34.378Z,1005.65
2018-10-11T11:45:34.346Z,1005.63
2018-10-11T11:46:34.327Z,1005.60
2018-10-11T11:47:34.410Z,1005.58
2018-10-11T11:48:34.263Z,1005.55
2018-10-11T11:49:34.307Z,1005.52
2018-10-11T11:50:34.320Z,1005.52
2018-10-11T11:51:34.323Z,1005.46
2018-10-11T11:52:34.168Z,1005.47
2018-10-11T11:53:34.248Z,1005.47
2018-10-11T11:54:34.143Z,1005.46
2018-10-11T11:55:34.249Z,1005.43
2018-10-11T11:56:34.070Z,1005.44
2018-10-11T11:57:34.163Z,1005.37
2018-10-11T11:58:34.017Z,1005.40
2018-10-11T11:59:34.078Z,1005.39
2018-10-11T12:00:33.962Z,1005.37
2018-10-11T12:01:34.081Z,1005.32
2018-10-11T12:02:33.946Z,1005.40
2018-10-11T12:03:33.995Z,1005.39
2018-10-11T12:04:33.868Z,1005.42
2018-10-11T12:05:34.012Z,1005.48